weather.gov     
National Weather Service

Terminal Aerodrome Forecast
NWS Homepage
This page is being discontinued on March 12, 2014.
The same data is available at this site. Please update your bookmarks.
Thank you, and we apologize for the inconvenience.
Please send an email to SR-SRH.Webmaster@noaa.gov with any concerns.


Current Version
Previous Version:    01  02  03  04  05  06  07  08  09  10  11  12  13  14  15  16  17  18  19  20  21  22  23  24  25  26  27  28  29  30  
   31  32  33  34  35  36  37  38  39  40  41  42  43  44  45  46  47  
[Printable]
897
FTUS41 KOKX 222300 RRA
TAFSWF
TAF
KSWF 222343Z 2300/2406 01015G22KT 4SM BR VCSH BKN015
     FM230400 36016G24KT 4SM -RA BR BKN010
     FM231300 36012G20KT 4SM BR VCSH BKN015
     FM231700 35013G21KT 6SM -DZ BR BKN020 OVC035
     FM232200 33010KT P6SM BKN035 BKN050
      AMD NOT SKED=


U.S. Dept. of Commerce
NOAA National Weather Service
1325 East West Highway
Silver Spring, MD 20910
E-mail: w-nws.webmaster@noaa.gov
Page last modified: May 16, 2007
NATIONAL WEATHER SERVICE: for Safety, for Work, for Fun - FOR LIFE